Marietta, SC (29661)

8:40 AM EST on March 02, 2015 (GMT -0500)
Highway 11 | Change Station
CLOSE
Current Station
Personal Weather Station
Location: Marietta, SC
Elevation: 1345 ft
Nearby Weather Stations

Elev 1345 ft 35.09 °N, 82.49 °W | Updated 9 seconds ago

Overcast
Overcast
43.2 °F
Feels Like 43 °F
N
0.0
Wind Variable Wind from NNE
Gusts 1.0 mph

Today
High -- | Low -- °F
--% Chance of Precip.
Yesterday
High -- | Low -- °F
Precip. -- in
6:58 AM 6:26 PM
Waxing Gibbous, 91% visible
Pressure 30.24 in
Visibility 0.2 miles
Clouds
Windchill 43 °F
Dew Point 43 °F
Humidity 100%
Rainfall 0.00 in
Snow Depth Not available.
UV Not available.
Pollen 4.50 out of 12
Air Quality Not available.
Flu Activity Not available.
METAR KGMU 021253Z 24004KT M1/4SM FG VV001 07/07 A3023 RMK AO2 SLP240 T00720067

More Conditions Fewer Conditions

Pressure 30.24 in
Visibility 0.2 miles
Clouds
Windchill 43 °F
Dew Point 43 °F
Humidity 100%
Rainfall 0.00 in
Snow Depth Not available.
UV Not available.
Pollen 4.50 out of 12
Air Quality Not available.
Flu Activity Not available.
METAR KGMU 021253Z 24004KT M1/4SM FG VV001 07/07 A3023 RMK AO2 SLP240 T00720067

More Conditions Fewer Conditions

10-Day Weather Forecast

Almanac

Astronomy

Mar. 02, 2015 Rise Set
Actual Time
Civil Twilight
Nautical Twilight
Astronomical Twilight
Moon
Length of Visible Light
Length of Day
Tomorrow will be .
, % of the Moon is Illuminated

Today's Extremes

State Highs State Lows

Community

WunderPhotos

Upload Photos

1,801,784 photos uploaded!

WunderBlogs® & News

Nearby

Air Quality

  Air Quality AQ Index Pollutant
Not available.

Snow Depth

Station Depth Elevation

Earthquake Activity

City Distance Mag. Time & Date
Minimum magnitude displayed is 2.5.

Coastal Water Temperatures

Place Temperature

Nearby Weather Stations